createdAt,value
2018-05-12T00:00:38.856Z,15.76
2018-05-12T00:01:38.976Z,15.72
2018-05-12T00:02:38.870Z,15.70
2018-05-12T00:03:39.909Z,15.68
2018-05-12T00:04:38.892Z,15.70
2018-05-12T00:05:38.994Z,15.61
2018-05-12T00:06:38.920Z,15.67
2018-05-12T00:07:40.047Z,15.61
2018-05-12T00:08:38.952Z,15.61
2018-05-12T00:09:39.018Z,15.60
2018-05-12T00:10:38.961Z,15.60
2018-05-12T00:12:24.938Z,15.63
2018-05-12T00:13:30.861Z,15.63
2018-05-12T00:14:24.920Z,15.63
2018-05-12T00:15:24.941Z,15.60
2018-05-12T00:16:24.919Z,15.54
2018-05-12T00:17:25.051Z,15.56
2018-05-12T00:18:24.936Z,15.52
2018-05-12T00:19:25.064Z,15.56
2018-05-12T00:20:25.022Z,15.52
2018-05-12T00:21:25.068Z,15.56
2018-05-12T00:22:24.985Z,15.57
2018-05-12T00:23:25.154Z,15.54
2018-05-12T00:24:25.021Z,15.59
2018-05-12T00:25:25.085Z,15.57
2018-05-12T00:26:25.061Z,15.54
2018-05-12T00:27:25.125Z,15.61
2018-05-12T00:28:25.079Z,15.51
2018-05-12T00:29:25.135Z,15.52
2018-05-12T00:31:11.073Z,15.57
2018-05-12T00:32:10.994Z,15.54
2018-05-12T00:33:10.974Z,15.52
2018-05-12T00:34:11.034Z,15.51
2018-05-12T00:35:11.006Z,15.52
2018-05-12T00:36:11.034Z,15.56
2018-05-12T00:37:11.025Z,15.49
2018-05-12T00:38:11.172Z,15.51
2018-05-12T00:39:11.056Z,15.54
2018-05-12T00:40:11.163Z,15.54
2018-05-12T00:41:57.085Z,15.48
2018-05-12T00:42:57.020Z,15.54
2018-05-12T00:43:57.019Z,15.49
2018-05-12T00:44:57.055Z,15.51
2018-05-12T00:45:57.044Z,15.45
2018-05-12T00:46:57.071Z,15.49
2018-05-12T00:47:57.069Z,15.54
2018-05-12T00:48:57.193Z,15.51
2018-05-12T00:49:57.091Z,15.57
2018-05-12T00:50:57.202Z,15.56
2018-05-12T00:52:43.225Z,15.57
2018-05-12T00:53:43.161Z,15.46
2018-05-12T00:54:43.162Z,15.46
2018-05-12T00:55:43.204Z,15.49
2018-05-12T00:56:43.191Z,15.51
2018-05-12T00:57:43.857Z,15.43
2018-05-12T00:58:43.254Z,15.46
2018-05-12T00:59:43.331Z,15.39
2018-05-12T01:00:43.248Z,15.43
2018-05-12T01:01:43.355Z,15.39
2018-05-12T01:02:43.292Z,15.48
2018-05-12T01:03:43.378Z,15.51
2018-05-12T01:04:43.286Z,15.48
2018-05-12T01:05:43.373Z,15.46
2018-05-12T01:06:43.310Z,15.48
2018-05-12T01:07:43.388Z,15.46
2018-05-12T01:08:43.352Z,15.45
2018-05-12T01:09:43.395Z,15.43
2018-05-12T01:10:43.357Z,15.43
2018-05-12T01:11:43.410Z,15.39
2018-05-12T01:12:43.396Z,15.41
2018-05-12T01:13:43.443Z,15.39
2018-05-12T01:14:43.403Z,15.39
2018-05-12T01:15:43.439Z,15.36
2018-05-12T01:16:43.421Z,15.31
2018-05-12T01:17:43.554Z,15.33
2018-05-12T01:18:43.494Z,15.28
2018-05-12T01:19:43.570Z,15.30
2018-05-12T01:20:43.491Z,15.26
2018-05-12T01:21:43.589Z,15.30
2018-05-12T01:22:43.505Z,15.31
2018-05-12T01:24:29.660Z,15.28
2018-05-12T01:25:29.675Z,15.24
2018-05-12T01:26:29.643Z,15.24
2018-05-12T01:27:29.692Z,15.23
2018-05-12T01:28:29.676Z,15.26
2018-05-12T01:29:29.708Z,15.19
2018-05-12T01:30:29.692Z,15.23
2018-05-12T01:31:29.815Z,15.31
2018-05-12T01:32:29.721Z,15.19
2018-05-12T01:33:29.865Z,15.19
2018-05-12T01:34:29.758Z,15.28
2018-05-12T01:35:29.842Z,15.24
2018-05-12T01:36:29.761Z,15.21
2018-05-12T01:37:29.866Z,15.26
2018-05-12T01:39:15.998Z,15.19
2018-05-12T01:40:15.930Z,15.24
2018-05-12T01:41:15.920Z,15.21
2018-05-12T01:42:15.977Z,15.20
2018-05-12T01:43:15.945Z,15.19
2018-05-12T01:44:15.973Z,15.23
2018-05-12T01:45:15.965Z,15.17
2018-05-12T01:46:16.134Z,15.20
2018-05-12T01:47:16.005Z,15.19
2018-05-12T01:48:16.110Z,15.24
2018-05-12T01:49:16.035Z,15.21
2018-05-12T01:50:16.125Z,15.21
2018-05-12T01:52:01.943Z,15.23
2018-05-12T01:53:01.868Z,15.21
2018-05-12T01:54:01.893Z,15.19
2018-05-12T01:55:01.917Z,15.20
2018-05-12T01:56:01.906Z,15.19
2018-05-12T01:57:01.935Z,15.08
2018-05-12T01:58:01.924Z,15.06
2018-05-12T01:59:02.047Z,15.08
2018-05-12T02:00:01.950Z,15.08
2018-05-12T02:01:02.054Z,15.15
2018-05-12T02:02:01.978Z,15.06
2018-05-12T02:03:02.070Z,15.09
2018-05-12T02:04:02.000Z,15.09
2018-05-12T02:05:02.078Z,15.09
2018-05-12T02:06:02.026Z,15.05
2018-05-12T02:07:02.089Z,15.08
2018-05-12T02:08:02.050Z,15.06
2018-05-12T02:09:02.109Z,15.06
2018-05-12T02:10:02.054Z,15.09
2018-05-12T02:11:02.120Z,15.06
2018-05-12T02:12:02.089Z,15.06
2018-05-12T02:13:02.128Z,15.03
2018-05-12T02:14:02.103Z,15.06
2018-05-12T02:15:02.159Z,15.08
2018-05-12T02:16:02.137Z,15.08
2018-05-12T02:17:02.165Z,15.08
2018-05-12T02:18:02.150Z,15.02
2018-05-12T02:19:02.279Z,15.06
2018-05-12T02:20:02.177Z,15.08
2018-05-12T02:21:02.294Z,15.05
2018-05-12T02:22:02.193Z,15.09
2018-05-12T02:23:02.294Z,15.05
2018-05-12T02:24:02.224Z,15.08
2018-05-12T02:25:02.310Z,15.06
2018-05-12T02:26:02.249Z,15.02
2018-05-12T02:27:02.327Z,14.98
2018-05-12T02:28:02.276Z,14.98
2018-05-12T02:29:02.417Z,14.98
2018-05-12T02:30:02.294Z,15.03
2018-05-12T02:31:02.363Z,14.90
2018-05-12T02:32:02.305Z,14.83
2018-05-12T02:33:02.330Z,14.75
2018-05-12T02:34:02.385Z,14.62
2018-05-12T02:35:02.347Z,14.60
2018-05-12T02:36:02.400Z,14.50
2018-05-12T02:37:02.363Z,14.42
2018-05-12T02:38:02.412Z,14.37
2018-05-12T02:39:02.395Z,14.21
2018-05-12T02:40:02.529Z,14.16
2018-05-12T02:41:02.444Z,14.07
2018-05-12T02:42:02.539Z,13.99
2018-05-12T02:43:02.430Z,13.83
2018-05-12T02:44:02.557Z,13.81
2018-05-12T02:45:02.478Z,13.74
2018-05-12T02:46:02.568Z,13.70
2018-05-12T02:47:02.491Z,13.65
2018-05-12T02:48:02.600Z,13.58
2018-05-12T02:49:02.530Z,13.55
2018-05-12T02:50:02.695Z,13.46
2018-05-12T02:51:02.554Z,13.51
2018-05-12T02:52:02.697Z,13.49
2018-05-12T02:53:02.567Z,13.49
2018-05-12T02:54:02.712Z,13.52
2018-05-12T02:55:02.595Z,13.44
2018-05-12T02:56:02.620Z,13.44
2018-05-12T02:57:02.586Z,13.29
2018-05-12T02:58:02.636Z,13.25
2018-05-12T02:59:02.607Z,13.32
2018-05-12T03:00:02.651Z,13.22
2018-05-12T03:01:02.634Z,13.14
2018-05-12T03:02:02.669Z,13.21
2018-05-12T03:03:02.733Z,13.15
2018-05-12T03:04:02.788Z,13.11
2018-05-12T03:05:02.678Z,13.11
2018-05-12T03:06:03.252Z,13.00
2018-05-12T03:07:02.699Z,13.03
2018-05-12T03:08:02.810Z,12.99
2018-05-12T03:09:02.727Z,12.97
2018-05-12T03:10:02.838Z,12.93
2018-05-12T03:11:02.780Z,13.03
2018-05-12T03:12:02.836Z,13.07
2018-05-12T03:13:02.769Z,13.12
2018-05-12T03:14:02.848Z,12.96
2018-05-12T03:15:02.791Z,13.00
2018-05-12T03:16:02.882Z,12.96
2018-05-12T03:17:02.813Z,12.93
2018-05-12T03:18:02.969Z,12.92
2018-05-12T03:19:02.831Z,12.85
2018-05-12T03:20:02.897Z,12.87
2018-05-12T03:21:02.857Z,12.88
2018-05-12T03:22:02.905Z,12.82
2018-05-12T03:23:02.874Z,12.81
2018-05-12T03:24:03.017Z,12.85
2018-05-12T03:25:02.927Z,12.78
2018-05-12T03:26:03.045Z,12.77
2018-05-12T03:27:02.926Z,12.78
2018-05-12T03:28:03.044Z,12.75
2018-05-12T03:29:02.941Z,12.66
2018-05-12T03:30:03.066Z,12.71
2018-05-12T03:31:02.960Z,12.70
2018-05-12T03:32:03.091Z,12.67
2018-05-12T03:33:03.003Z,12.75
2018-05-12T03:34:03.090Z,12.67
2018-05-12T03:35:03.016Z,12.63
2018-05-12T03:36:03.114Z,12.67
2018-05-12T03:37:03.044Z,12.60
2018-05-12T03:38:03.035Z,12.57
2018-05-12T03:39:03.126Z,12.59
2018-05-12T03:40:03.067Z,12.59
2018-05-12T03:41:03.144Z,12.64
2018-05-12T03:42:03.085Z,12.64
2018-05-12T03:43:03.157Z,12.66
2018-05-12T03:44:03.106Z,12.69
2018-05-12T03:45:03.180Z,12.59
2018-05-12T03:46:03.129Z,12.64
2018-05-12T03:47:03.202Z,12.59
2018-05-12T03:48:03.182Z,12.57
2018-05-12T03:49:49.264Z,12.59
2018-05-12T03:50:49.296Z,12.62
2018-05-12T03:51:49.239Z,12.60
2018-05-12T03:52:49.393Z,12.57
2018-05-12T03:53:49.261Z,12.63
2018-05-12T03:54:49.419Z,12.63
2018-05-12T03:55:49.308Z,12.62
2018-05-12T03:56:49.425Z,12.57
2018-05-12T03:57:49.308Z,12.60
2018-05-12T03:58:49.449Z,12.60
2018-05-12T03:59:49.334Z,12.63
2018-05-12T04:00:49.452Z,12.64
2018-05-12T04:01:49.370Z,12.63
2018-05-12T04:02:49.474Z,12.70
2018-05-12T04:03:49.381Z,12.70
2018-05-12T04:04:49.487Z,12.75
2018-05-12T04:05:49.415Z,12.77
2018-05-12T04:06:49.503Z,12.77
2018-05-12T04:07:49.414Z,12.78
2018-05-12T04:08:49.503Z,12.75
2018-05-12T04:09:49.488Z,12.78
2018-05-12T04:10:49.518Z,12.81
2018-05-12T04:11:49.453Z,12.85
2018-05-12T04:12:49.529Z,12.87
2018-05-12T04:13:49.476Z,12.92
2018-05-12T04:15:35.918Z,12.93
2018-05-12T04:16:36.069Z,12.97
2018-05-12T04:17:35.905Z,13.03
2018-05-12T04:18:36.062Z,12.99
2018-05-12T04:19:35.924Z,13.03
2018-05-12T04:20:36.074Z,13.09
2018-05-12T04:21:35.959Z,13.14
2018-05-12T04:22:36.089Z,13.09
2018-05-12T04:23:35.970Z,13.12
2018-05-12T04:24:36.107Z,13.24
2018-05-12T04:25:35.983Z,13.15
2018-05-12T04:26:36.165Z,13.20
2018-05-12T04:27:36.020Z,13.17
2018-05-12T04:28:36.144Z,13.09
2018-05-12T04:29:36.026Z,13.20
2018-05-12T04:30:36.141Z,13.18
2018-05-12T04:31:36.053Z,13.27
2018-05-12T04:32:36.171Z,13.29
2018-05-12T04:33:36.066Z,13.33
2018-05-12T04:34:36.166Z,13.40
2018-05-12T04:35:36.095Z,13.30
2018-05-12T04:36:36.221Z,13.47
2018-05-12T04:37:36.109Z,13.43
2018-05-12T04:38:36.193Z,13.51
2018-05-12T04:39:36.135Z,13.56
2018-05-12T04:40:36.213Z,13.56
2018-05-12T04:41:36.175Z,13.55
2018-05-12T04:42:36.363Z,13.63
2018-05-12T04:43:36.194Z,13.67
2018-05-12T04:44:36.336Z,13.77
2018-05-12T04:45:36.210Z,13.76
2018-05-12T04:46:36.352Z,13.81
2018-05-12T04:47:36.222Z,13.81
2018-05-12T04:48:36.366Z,13.87
2018-05-12T04:49:36.240Z,13.95
2018-05-12T04:50:36.381Z,13.96
2018-05-12T04:51:36.256Z,14.01
2018-05-12T04:53:22.879Z,14.06
2018-05-12T04:54:22.991Z,14.06
2018-05-12T04:55:22.885Z,14.06
2018-05-12T04:56:22.996Z,14.02
2018-05-12T04:57:22.876Z,14.06
2018-05-12T04:58:23.032Z,14.20
2018-05-12T04:59:22.899Z,14.25
2018-05-12T05:00:23.042Z,14.31
2018-05-12T05:01:22.923Z,14.38
2018-05-12T05:02:23.042Z,14.42
2018-05-12T05:03:22.938Z,14.34
2018-05-12T05:04:23.058Z,14.37
2018-05-12T05:05:22.963Z,14.46
2018-05-12T05:06:23.074Z,14.53
2018-05-12T05:07:22.982Z,14.57
2018-05-12T05:08:23.085Z,14.69
2018-05-12T05:09:23.000Z,14.71
2018-05-12T05:10:23.102Z,14.72
2018-05-12T05:11:23.045Z,14.78
2018-05-12T05:12:23.115Z,14.90
2018-05-12T05:13:23.071Z,14.86
2018-05-12T05:14:23.237Z,14.98
2018-05-12T05:15:23.183Z,15.05
2018-05-12T05:16:23.241Z,14.94
2018-05-12T05:17:23.084Z,15.06
2018-05-12T05:18:23.303Z,15.02
2018-05-12T05:19:23.122Z,15.08
2018-05-12T05:20:23.276Z,14.98
2018-05-12T05:21:23.125Z,15.02
2018-05-12T05:22:23.285Z,15.12
2018-05-12T05:23:23.146Z,15.06
2018-05-12T05:25:09.280Z,15.20
2018-05-12T05:26:09.391Z,15.26
2018-05-12T05:27:09.256Z,15.19
2018-05-12T05:28:09.430Z,15.19
2018-05-12T05:29:09.299Z,15.13
2018-05-12T05:30:09.425Z,15.28
2018-05-12T05:31:09.312Z,15.27
2018-05-12T05:32:09.448Z,15.33
2018-05-12T05:33:09.312Z,15.38
2018-05-12T05:34:09.464Z,15.42
2018-05-12T05:35:09.360Z,15.38
2018-05-12T05:36:55.948Z,15.41
2018-05-12T05:37:56.080Z,15.42
2018-05-12T05:38:55.913Z,15.39
2018-05-12T05:39:56.077Z,15.43
2018-05-12T05:40:55.942Z,15.30
2018-05-12T05:41:56.084Z,15.49
2018-05-12T05:42:55.962Z,15.57
2018-05-12T05:43:56.100Z,15.54
2018-05-12T05:44:55.974Z,15.54
2018-05-12T05:45:56.108Z,15.52
2018-05-12T05:46:55.994Z,15.74
2018-05-12T05:47:56.136Z,15.63
2018-05-12T05:48:56.026Z,15.66
2018-05-12T05:50:42.113Z,15.74
2018-05-12T05:51:42.222Z,15.85
2018-05-12T05:52:42.128Z,16.01
2018-05-12T05:53:42.234Z,16.03
2018-05-12T05:54:42.114Z,16.16
2018-05-12T05:55:42.260Z,16.15
2018-05-12T05:56:42.143Z,16.16
2018-05-12T05:57:42.269Z,16.16
2018-05-12T05:58:42.156Z,16.26
2018-05-12T05:59:42.288Z,16.25
2018-05-12T06:00:42.167Z,16.31
2018-05-12T06:01:42.287Z,16.40
2018-05-12T06:02:42.199Z,16.45
2018-05-12T06:03:42.330Z,16.42
2018-05-12T06:04:42.226Z,16.52
2018-05-12T06:05:42.394Z,16.59
2018-05-12T06:06:42.270Z,16.63
2018-05-12T06:08:28.329Z,16.68
2018-05-12T06:09:28.345Z,16.65
2018-05-12T06:10:28.321Z,16.80
2018-05-12T06:11:28.456Z,16.65
2018-05-12T06:12:28.322Z,16.74
2018-05-12T06:13:28.360Z,16.73
2018-05-12T06:14:28.434Z,16.71
2018-05-12T06:15:28.496Z,16.86
2018-05-12T06:17:14.196Z,16.92
2018-05-12T06:18:14.106Z,16.85
2018-05-12T06:19:14.107Z,16.90
2018-05-12T06:20:14.400Z,16.99
2018-05-12T06:21:14.650Z,17.11
2018-05-12T06:22:14.401Z,17.15
2018-05-12T06:23:14.165Z,17.32
2018-05-12T06:24:14.273Z,17.30
2018-05-12T06:25:14.180Z,17.38
2018-05-12T06:26:35.198Z,17.62
2018-05-12T06:51:59.321Z,17.95
2018-05-12T06:52:59.343Z,18.02
2018-05-12T06:53:59.319Z,18.02
2018-05-12T06:54:59.580Z,17.97
2018-05-12T06:55:59.394Z,18.02
2018-05-12T06:56:59.341Z,18.00
2018-05-12T06:57:59.373Z,17.97
2018-05-12T06:58:59.482Z,18.04
2018-05-12T06:59:59.373Z,18.02
2018-05-12T07:00:59.430Z,18.03
2018-05-12T07:01:59.408Z,18.03
2018-05-12T07:02:59.412Z,18.09
2018-05-12T07:04:00.445Z,18.07
2018-05-12T07:04:59.426Z,18.03
2018-05-12T07:05:59.444Z,18.21
2018-05-12T07:06:59.455Z,18.19
2018-05-12T07:08:45.300Z,18.27
2018-05-12T07:09:45.287Z,18.28
2018-05-12T07:10:45.292Z,18.39
2018-05-12T07:11:45.298Z,18.28
2018-05-12T07:12:45.322Z,18.40
2018-05-12T07:13:45.316Z,18.33
2018-05-12T07:14:45.347Z,18.19
2018-05-12T07:15:45.374Z,18.29
2018-05-12T07:16:45.351Z,18.34
2018-05-12T07:17:45.372Z,18.33
2018-05-12T07:18:45.379Z,18.34
2018-05-12T07:19:45.403Z,18.31
2018-05-12T07:20:45.398Z,18.43
2018-05-12T07:21:45.414Z,18.50
2018-05-12T07:22:45.419Z,18.59
2018-05-12T07:23:45.440Z,18.67
2018-05-12T07:24:45.452Z,18.64
2018-05-12T07:25:45.450Z,18.67
2018-05-12T07:26:45.468Z,18.80
2018-05-12T07:27:45.477Z,18.67
2018-05-12T07:28:45.491Z,18.76
2018-05-12T07:29:45.512Z,18.79
2018-05-12T07:31:31.848Z,18.62
2018-05-12T07:32:31.780Z,18.74
2018-05-12T07:33:31.721Z,18.72
2018-05-12T07:34:31.789Z,18.80
2018-05-12T07:35:31.752Z,18.76
2018-05-12T07:36:31.798Z,18.59
2018-05-12T07:37:31.787Z,18.74
2018-05-12T07:38:31.813Z,18.80
2018-05-12T07:39:31.790Z,18.91
2018-05-12T07:40:31.828Z,18.91
2018-05-12T07:41:31.812Z,18.99
2018-05-12T07:42:31.940Z,18.95
2018-05-12T07:43:31.835Z,19.08
2018-05-12T07:44:31.958Z,18.91
2018-05-12T07:45:31.979Z,18.64
2018-05-12T07:46:31.973Z,18.72
2018-05-12T07:47:31.886Z,18.74
2018-05-12T07:48:31.898Z,18.64
2018-05-12T07:49:31.938Z,18.76
2018-05-12T07:50:31.992Z,18.84
2018-05-12T08:11:50.082Z,19.23
2018-05-12T08:12:50.078Z,19.20
2018-05-12T08:13:50.040Z,19.25
2018-05-12T08:14:50.055Z,19.28
2018-05-12T08:15:50.078Z,19.28
2018-05-12T08:16:52.094Z,19.36
2018-05-12T08:17:50.103Z,19.36
2018-05-12T08:18:54.660Z,19.39
2018-05-12T08:19:50.110Z,19.39
2018-05-12T08:20:50.141Z,19.47
2018-05-12T08:21:50.139Z,19.40
2018-05-12T08:22:50.189Z,19.48
2018-05-12T08:23:50.161Z,19.65
2018-05-12T08:24:50.167Z,19.69
2018-05-12T08:25:50.174Z,19.69
2018-05-12T08:26:50.199Z,19.73
2018-05-12T08:27:50.268Z,19.83
2018-05-12T08:28:50.206Z,19.80
2018-05-12T08:29:50.217Z,19.84
2018-05-12T08:30:50.235Z,19.84
2018-05-12T08:31:50.242Z,19.90
2018-05-12T08:32:50.251Z,19.93
2018-05-12T08:33:50.259Z,19.98
2018-05-12T08:34:50.270Z,19.95
2018-05-12T08:35:50.287Z,20.02
2018-05-12T08:36:50.290Z,20.06
2018-05-12T08:37:50.320Z,19.98
2018-05-12T08:38:50.331Z,20.03
2018-05-12T08:39:50.373Z,20.09
2018-05-12T08:40:50.351Z,20.16
2018-05-12T08:41:55.141Z,20.15
2018-05-12T08:42:50.361Z,20.08
2018-05-12T08:43:50.368Z,20.18
2018-05-12T08:44:50.377Z,20.25
2018-05-12T08:45:51.418Z,20.23
2018-05-12T08:46:50.455Z,20.33
2018-05-12T08:47:50.441Z,20.28
2018-05-12T08:48:52.164Z,20.23
2018-05-12T08:50:36.264Z,20.24
2018-05-12T08:51:36.296Z,20.08
2018-05-12T08:52:36.260Z,20.23
2018-05-12T08:53:36.274Z,20.27
2018-05-12T08:54:36.288Z,20.31
2018-05-12T08:55:36.294Z,20.47
2018-05-12T08:56:36.309Z,20.54
2018-05-12T08:57:36.331Z,20.64
2018-05-12T08:58:36.338Z,20.66
2018-05-12T08:59:36.360Z,20.83
2018-05-12T09:00:36.375Z,20.76
2018-05-12T09:01:36.360Z,20.80
2018-05-12T09:02:36.378Z,20.81
2018-05-12T09:03:36.429Z,20.89
2018-05-12T09:04:36.399Z,20.80
2018-05-12T09:05:51.065Z,20.80
2018-05-12T09:06:36.418Z,20.90
2018-05-12T09:07:38.452Z,20.80
2018-05-12T09:08:36.453Z,20.90
2018-05-12T09:09:37.484Z,21.11
2018-05-12T09:10:36.461Z,21.09
2018-05-12T09:11:36.483Z,21.19
2018-05-12T09:12:36.490Z,21.14
2018-05-12T09:13:36.502Z,21.20
2018-05-12T09:14:36.511Z,21.30
2018-05-12T09:15:57.558Z,21.38
2018-05-12T09:16:36.561Z,21.29
2018-05-12T09:20:11.150Z,21.56
2018-05-12T09:21:11.118Z,21.69
2018-05-12T09:22:16.941Z,21.85
2018-05-12T09:23:11.175Z,21.92
2018-05-12T09:24:11.160Z,21.99
2018-05-12T09:25:11.152Z,22.13
2018-05-12T09:26:17.931Z,22.09
2018-05-12T09:27:11.182Z,21.95
2018-05-12T09:28:17.920Z,21.95
2018-05-12T09:29:11.215Z,21.88
2018-05-12T09:30:46.921Z,21.81
2018-05-12T09:31:11.233Z,21.90
2018-05-12T09:32:11.241Z,21.92
2018-05-12T09:33:58.575Z,22.07
2018-05-12T09:35:04.149Z,22.12
2018-05-12T09:35:58.558Z,22.31
2018-05-12T09:37:31.195Z,22.25
2018-05-12T09:37:58.584Z,22.07
2018-05-12T09:39:10.144Z,22.09
2018-05-12T09:39:58.594Z,22.46
2018-05-12T09:41:00.629Z,22.59
2018-05-12T09:41:58.628Z,22.89
2018-05-12T09:43:00.651Z,22.99
2018-05-12T09:43:58.653Z,23.09
2018-05-12T09:45:04.696Z,23.32
2018-05-12T09:45:58.895Z,23.71
2018-05-12T09:47:14.689Z,23.89
2018-05-12T09:53:44.767Z,24.79
2018-05-12T09:54:29.683Z,24.98
2018-05-12T09:55:31.729Z,24.88
2018-05-12T09:56:29.682Z,24.61
2018-05-12T09:57:31.701Z,24.64
2018-05-12T09:58:29.712Z,24.44
2018-05-12T09:59:29.732Z,24.85
2018-05-12T10:00:29.729Z,25.17
2018-05-12T10:01:40.744Z,25.13
2018-05-12T10:02:29.803Z,25.28
2018-05-12T10:03:42.751Z,25.49
2018-05-12T10:04:29.836Z,25.69
2018-05-12T10:05:51.811Z,25.67
2018-05-12T10:06:29.825Z,25.90
2018-05-12T10:07:30.897Z,25.67
2018-05-12T10:08:29.859Z,25.72
2018-05-12T10:13:49.700Z,25.44
2018-05-12T10:14:49.677Z,25.27
2018-05-12T10:15:49.700Z,25.12
2018-05-12T10:17:02.325Z,25.19
2018-05-12T10:17:49.735Z,25.09
2018-05-12T10:18:55.337Z,24.88
2018-05-12T10:19:49.766Z,24.94
2018-05-12T10:20:50.762Z,24.83
2018-05-12T10:21:49.788Z,24.67
2018-05-12T10:22:50.787Z,24.63
2018-05-12T10:23:49.805Z,24.60
2018-05-12T10:24:49.809Z,24.57
2018-05-12T10:25:49.812Z,24.57
2018-05-12T10:27:15.803Z,24.61
2018-05-12T10:27:49.844Z,24.69
2018-05-12T10:28:51.890Z,24.73
2018-05-12T10:33:07.404Z,24.98
2018-05-12T10:34:17.392Z,24.63
2018-05-12T10:35:04.618Z,24.50
2018-05-12T10:36:05.695Z,24.71
2018-05-12T10:37:04.692Z,24.56
2018-05-12T10:38:04.663Z,24.38
2018-05-12T10:39:04.644Z,24.57
2018-05-12T10:40:09.422Z,24.73
2018-05-12T10:41:04.671Z,24.91
2018-05-12T11:04:11.247Z,25.47
2018-05-12T11:05:02.342Z,25.64
2018-05-12T11:06:02.351Z,25.72
2018-05-12T11:07:02.382Z,25.77
2018-05-12T11:08:03.390Z,25.77
2018-05-12T11:09:02.420Z,25.74
2018-05-12T11:10:03.443Z,25.77
2018-05-12T11:11:02.443Z,25.74
2018-05-12T11:12:23.450Z,25.77
2018-05-12T11:13:02.445Z,25.69
2018-05-12T11:14:15.194Z,25.69
2018-05-12T11:15:02.534Z,25.71
2018-05-12T11:18:43.916Z,25.84
2018-05-12T11:19:32.556Z,25.89
2018-05-12T11:20:39.405Z,25.72
2018-05-12T11:21:32.656Z,25.82
2018-05-12T11:22:45.408Z,25.99
2018-05-12T11:23:32.640Z,26.15
2018-05-12T11:24:33.659Z,26.08
2018-05-12T11:25:32.638Z,26.11
2018-05-12T11:26:33.799Z,26.08
2018-05-12T11:27:32.680Z,26.15
2018-05-12T11:28:33.682Z,26.15
2018-05-12T11:29:32.688Z,26.15
2018-05-12T11:36:30.728Z,26.06
2018-05-12T11:37:29.688Z,26.11
2018-05-12T11:39:03.319Z,26.12
2018-05-12T11:39:29.715Z,26.20
2018-05-12T11:40:29.732Z,26.08
2018-05-12T11:41:29.757Z,26.04
2018-05-12T11:42:29.749Z,26.09
2018-05-12T11:43:30.890Z,26.15
2018-05-12T11:44:29.845Z,26.22
2018-05-12T11:45:29.811Z,26.15
2018-05-12T11:46:29.814Z,26.32
2018-05-12T11:47:31.846Z,26.21
2018-05-12T11:48:29.881Z,26.25
2018-05-12T11:49:34.812Z,26.29
2018-05-12T11:50:29.890Z,26.21
2018-05-12T12:03:52.349Z,26.52
2018-05-12T12:04:52.220Z,26.55
2018-05-12T12:05:52.245Z,26.68
2018-05-12T12:06:52.242Z,26.68
2018-05-12T12:07:52.226Z,26.57
2018-05-12T12:08:52.267Z,26.65
2018-05-12T12:09:52.256Z,26.67
2018-05-12T12:10:52.285Z,26.67
2018-05-12T12:11:52.285Z,26.50
2018-05-12T12:12:52.329Z,25.86
2018-05-12T12:13:52.318Z,26.02
2018-05-12T12:14:52.387Z,25.91
2018-05-12T12:15:52.347Z,25.87
2018-05-12T12:16:52.361Z,25.44
2018-05-12T12:17:52.371Z,25.69
2018-05-12T12:18:52.391Z,25.93
2018-05-12T12:19:52.421Z,25.93
2018-05-12T12:21:38.288Z,26.15
2018-05-12T12:22:38.416Z,26.40
2018-05-12T12:23:38.259Z,26.57
2018-05-12T12:24:38.286Z,26.50
2018-05-12T12:25:38.305Z,26.61
2018-05-12T12:26:38.314Z,26.72
2018-05-12T12:27:38.340Z,26.77
2018-05-12T12:28:38.321Z,26.80
2018-05-12T12:29:38.342Z,26.72
2018-05-12T12:30:38.350Z,26.67
2018-05-12T12:31:38.371Z,26.65
2018-05-12T12:32:38.388Z,26.81
2018-05-12T12:33:38.416Z,26.91
2018-05-12T12:34:38.416Z,26.87
2018-05-12T12:35:38.425Z,26.77
2018-05-12T12:36:38.437Z,26.79
2018-05-12T12:37:38.475Z,26.83
2018-05-12T12:38:38.480Z,26.72
2018-05-12T12:39:38.510Z,26.69
2018-05-12T12:41:24.860Z,27.09
2018-05-12T12:42:24.889Z,27.20
2018-05-12T12:43:24.843Z,26.86
2018-05-12T12:44:24.883Z,27.20
2018-05-12T12:45:24.866Z,26.77
2018-05-12T12:46:24.891Z,26.69
2018-05-12T12:47:24.904Z,26.52
2018-05-12T12:48:24.959Z,26.40
2018-05-12T12:49:24.944Z,25.57
2018-05-12T12:50:25.073Z,25.42
2018-05-12T12:51:24.964Z,25.75
2018-05-12T12:52:24.979Z,26.11
2018-05-12T12:53:24.982Z,26.36
2018-05-12T12:54:25.010Z,26.11
2018-05-12T12:55:25.022Z,26.22
2018-05-12T12:56:25.047Z,25.83
2018-05-12T12:57:25.057Z,25.61
2018-05-12T12:58:25.069Z,25.82
2018-05-12T12:59:25.071Z,25.59
2018-05-12T13:00:25.110Z,25.25
2018-05-12T13:01:25.110Z,24.85
2018-05-12T13:02:25.227Z,24.57
2018-05-12T13:03:25.172Z,24.63
2018-05-12T13:04:26.154Z,24.91
2018-05-12T13:06:11.093Z,25.57
2018-05-12T13:07:11.009Z,25.74
2018-05-12T13:08:11.033Z,25.84
2018-05-12T13:09:11.033Z,26.05
2018-05-12T13:10:11.105Z,26.09
2018-05-12T13:11:11.066Z,26.50
2018-05-12T13:12:11.068Z,26.40
2018-05-12T13:13:11.109Z,26.35
2018-05-12T13:14:11.120Z,26.50
2018-05-12T13:15:11.135Z,26.73
2018-05-12T13:16:11.135Z,26.76
2018-05-12T13:17:11.180Z,26.76
2018-05-12T13:18:11.168Z,26.65
2018-05-12T13:19:11.187Z,26.73
2018-05-12T13:20:11.212Z,26.67
2018-05-12T13:21:11.208Z,26.79
2018-05-12T13:22:11.291Z,26.80
2018-05-12T13:23:12.241Z,26.83
2018-05-12T13:24:11.265Z,26.72
2018-05-12T13:25:11.265Z,26.76
2018-05-12T13:26:11.402Z,26.67
2018-05-12T13:27:11.325Z,26.72
2018-05-12T13:28:11.300Z,26.68
2018-05-12T13:29:11.338Z,26.73
2018-05-12T13:30:11.337Z,26.65
2018-05-12T13:31:11.363Z,26.80
2018-05-12T13:32:11.368Z,26.69
2018-05-12T13:33:11.402Z,26.77
2018-05-12T13:34:57.416Z,26.84
2018-05-12T13:35:57.398Z,26.79
2018-05-12T13:36:57.437Z,26.76
2018-05-12T13:37:57.474Z,26.57
2018-05-12T13:38:57.449Z,26.49
2018-05-12T13:39:57.459Z,26.52
2018-05-12T13:40:57.485Z,26.52
2018-05-12T13:41:57.503Z,26.49
2018-05-12T13:42:57.532Z,26.29
2018-05-12T13:43:57.576Z,26.21
2018-05-12T13:44:57.543Z,26.22
2018-05-12T13:45:57.549Z,26.32
2018-05-12T13:46:57.564Z,26.46
2018-05-12T13:47:57.587Z,26.50
2018-05-12T13:48:57.639Z,26.44
2018-05-12T13:49:57.645Z,26.42
2018-05-12T13:50:57.620Z,26.50
2018-05-12T13:51:57.654Z,26.52
2018-05-12T13:52:57.661Z,26.47
2018-05-12T13:53:58.680Z,26.52
2018-05-12T13:54:57.677Z,26.57
2018-05-12T13:55:58.768Z,26.64
2018-05-12T13:56:57.707Z,26.62
2018-05-12T13:57:57.736Z,26.67
2018-05-12T13:58:57.748Z,26.77
2018-05-12T13:59:57.755Z,26.79
2018-05-12T14:00:57.787Z,26.77
2018-05-12T14:02:44.147Z,26.69
2018-05-12T14:03:43.998Z,26.57
2018-05-12T14:04:43.970Z,26.54
2018-05-12T14:05:43.993Z,26.50
2018-05-12T14:06:44.007Z,26.64
2018-05-12T14:07:44.023Z,26.65
2018-05-12T14:08:44.026Z,26.64
2018-05-12T14:09:44.060Z,26.65
2018-05-12T14:10:44.072Z,26.72
2018-05-12T14:11:44.080Z,26.65
2018-05-12T14:12:44.103Z,25.90
2018-05-12T14:13:44.111Z,25.91
2018-05-12T14:14:44.118Z,26.01
2018-05-12T14:15:44.145Z,25.77
2018-05-12T14:16:44.152Z,25.91
2018-05-12T14:17:44.165Z,25.90
2018-05-12T14:18:44.231Z,26.02
2018-05-12T14:19:44.241Z,26.17
2018-05-12T14:20:44.201Z,26.17
2018-05-12T14:21:44.276Z,26.22
2018-05-12T14:23:34.838Z,26.18
2018-05-12T14:24:34.747Z,26.20
2018-05-12T14:25:34.780Z,26.25
2018-05-12T14:26:34.756Z,26.21
2018-05-12T14:27:34.789Z,26.17
2018-05-12T14:28:34.809Z,26.15
2018-05-12T14:29:34.832Z,26.08
2018-05-12T14:30:34.809Z,26.08
2018-05-12T14:31:34.842Z,26.09
2018-05-12T14:32:34.849Z,25.99
2018-05-12T14:33:34.867Z,26.09
2018-05-12T14:34:34.905Z,26.02
2018-05-12T14:35:34.878Z,26.02
2018-05-12T14:36:34.907Z,26.01
2018-05-12T14:37:34.959Z,25.87
2018-05-12T14:38:34.937Z,25.74
2018-05-12T14:39:34.951Z,25.89
2018-05-12T14:40:34.968Z,26.04
2018-05-12T14:41:34.985Z,26.12
2018-05-12T14:43:21.463Z,26.01
2018-05-12T14:44:21.405Z,26.15
2018-05-12T14:45:21.396Z,26.04
2018-05-12T14:46:21.425Z,26.17
2018-05-12T14:47:21.443Z,25.90
2018-05-12T14:48:21.460Z,25.89
2018-05-12T14:49:21.565Z,25.89
2018-05-12T14:50:21.474Z,26.02
2018-05-12T14:51:21.480Z,26.12
2018-05-12T14:52:21.500Z,26.17
2018-05-12T14:53:21.528Z,26.21
2018-05-12T14:54:21.538Z,26.22
2018-05-12T14:55:21.547Z,26.21
2018-05-12T14:56:21.574Z,26.29